sensor_id;sensor_type;location;lat;lon;timestamp;P1;durP1;ratioP1;P2;durP2;ratioP2
69170;SDS011;56279;47.902;12.308;2024-02-16T00:01:17;7.72;;;4.03;;
69170;SDS011;56279;47.902;12.308;2024-02-16T00:03:22;7.43;;;4.28;;
69170;SDS011;56279;47.902;12.308;2024-02-16T00:05:23;7.95;;;4.00;;
69170;SDS011;56279;47.902;12.308;2024-02-16T00:07:26;7.85;;;4.15;;
69170;SDS011;56279;47.902;12.308;2024-02-16T00:09:27;7.28;;;4.05;;
69170;SDS011;56279;47.902;12.308;2024-02-16T00:11:29;6.68;;;3.50;;
69170;SDS011;56279;47.902;12.308;2024-02-16T00:13:31;7.18;;;4.00;;
69170;SDS011;56279;47.902;12.308;2024-02-16T00:15:34;7.38;;;3.67;;
69170;SDS011;56279;47.902;12.308;2024-02-16T00:17:36;7.05;;;3.90;;
69170;SDS011;56279;47.902;12.308;2024-02-16T00:19:38;6.65;;;3.45;;
69170;SDS011;56279;47.902;12.308;2024-02-16T00:21:40;5.78;;;3.53;;
69170;SDS011;56279;47.902;12.308;2024-02-16T00:23:43;5.82;;;3.42;;
69170;SDS011;56279;47.902;12.308;2024-02-16T00:25:45;5.80;;;3.28;;
69170;SDS011;56279;47.902;12.308;2024-02-16T00:27:46;5.70;;;3.50;;
69170;SDS011;56279;47.902;12.308;2024-02-16T00:29:48;6.72;;;3.60;;
69170;SDS011;56279;47.902;12.308;2024-02-16T00:31:49;6.07;;;3.28;;
69170;SDS011;56279;47.902;12.308;2024-02-16T00:33:51;6.70;;;3.67;;
69170;SDS011;56279;47.902;12.308;2024-02-16T00:35:53;5.68;;;3.13;;
69170;SDS011;56279;47.902;12.308;2024-02-16T00:37:54;5.10;;;3.17;;
69170;SDS011;56279;47.902;12.308;2024-02-16T00:39:56;5.85;;;3.03;;
69170;SDS011;56279;47.902;12.308;2024-02-16T00:41:58;5.75;;;2.95;;
69170;SDS011;56279;47.902;12.308;2024-02-16T00:44:02;5.40;;;2.90;;
69170;SDS011;56279;47.902;12.308;2024-02-16T00:46:03;7.97;;;2.90;;
69170;SDS011;56279;47.902;12.308;2024-02-16T00:48:04;6.72;;;3.00;;
69170;SDS011;56279;47.902;12.308;2024-02-16T00:50:08;7.00;;;3.42;;
69170;SDS011;56279;47.902;12.308;2024-02-16T00:52:10;6.60;;;3.33;;
69170;SDS011;56279;47.902;12.308;2024-02-16T00:54:12;5.80;;;3.03;;
69170;SDS011;56279;47.902;12.308;2024-02-16T00:56:14;5.75;;;3.38;;
69170;SDS011;56279;47.902;12.308;2024-02-16T00:58:15;7.82;;;3.80;;
69170;SDS011;56279;47.902;12.308;2024-02-16T01:00:16;7.05;;;3.28;;
69170;SDS011;56279;47.902;12.308;2024-02-16T01:02:20;5.93;;;3.33;;
69170;SDS011;56279;47.902;12.308;2024-02-16T01:04:24;5.68;;;3.13;;
69170;SDS011;56279;47.902;12.308;2024-02-16T01:06:26;5.72;;;3.20;;
69170;SDS011;56279;47.902;12.308;2024-02-16T01:08:28;8.05;;;3.80;;
69170;SDS011;56279;47.902;12.308;2024-02-16T01:10:29;7.00;;;3.30;;
69170;SDS011;56279;47.902;12.308;2024-02-16T01:12:30;5.70;;;3.35;;
69170;SDS011;56279;47.902;12.308;2024-02-16T01:14:34;7.68;;;3.33;;
69170;SDS011;56279;47.902;12.308;2024-02-16T01:16:35;5.70;;;3.10;;
69170;SDS011;56279;47.902;12.308;2024-02-16T01:18:36;6.18;;;3.30;;
69170;SDS011;56279;47.902;12.308;2024-02-16T01:20:39;7.45;;;2.85;;
69170;SDS011;56279;47.902;12.308;2024-02-16T01:22:41;5.60;;;3.13;;
69170;SDS011;56279;47.902;12.308;2024-02-16T01:24:43;5.85;;;2.85;;
69170;SDS011;56279;47.902;12.308;2024-02-16T01:26:45;4.45;;;2.70;;
69170;SDS011;56279;47.902;12.308;2024-02-16T01:28:46;6.10;;;3.00;;
69170;SDS011;56279;47.902;12.308;2024-02-16T01:30:53;6.18;;;2.90;;
69170;SDS011;56279;47.902;12.308;2024-02-16T01:32:57;5.53;;;3.20;;
69170;SDS011;56279;47.902;12.308;2024-02-16T01:34:58;6.22;;;3.00;;
69170;SDS011;56279;47.902;12.308;2024-02-16T01:36:59;6.07;;;2.88;;
69170;SDS011;56279;47.902;12.308;2024-02-16T01:39:00;9.68;;;3.17;;
69170;SDS011;56279;47.902;12.308;2024-02-16T01:41:06;6.18;;;2.92;;
69170;SDS011;56279;47.902;12.308;2024-02-16T01:43:09;4.60;;;2.58;;
69170;SDS011;56279;47.902;12.308;2024-02-16T01:45:12;6.28;;;2.85;;
69170;SDS011;56279;47.902;12.308;2024-02-16T01:47:14;4.82;;;2.75;;
69170;SDS011;56279;47.902;12.308;2024-02-16T01:49:17;5.28;;;3.10;;
69170;SDS011;56279;47.902;12.308;2024-02-16T01:51:19;5.13;;;2.70;;
69170;SDS011;56279;47.902;12.308;2024-02-16T01:53:25;6.03;;;2.65;;
69170;SDS011;56279;47.902;12.308;2024-02-16T01:55:26;6.07;;;2.60;;
69170;SDS011;56279;47.902;12.308;2024-02-16T01:57:31;5.00;;;2.45;;
69170;SDS011;56279;47.902;12.308;2024-02-16T01:59:32;5.90;;;2.65;;
69170;SDS011;56279;47.902;12.308;2024-02-16T02:01:34;5.93;;;2.50;;
69170;SDS011;56279;47.902;12.308;2024-02-16T02:03:37;4.80;;;2.63;;
69170;SDS011;56279;47.902;12.308;2024-02-16T02:05:46;4.63;;;2.38;;
69170;SDS011;56279;47.902;12.308;2024-02-16T02:07:49;4.68;;;2.38;;
69170;SDS011;56279;47.902;12.308;2024-02-16T02:09:53;5.53;;;2.72;;
69170;SDS011;56279;47.902;12.308;2024-02-16T02:11:55;5.13;;;2.40;;
69170;SDS011;56279;47.902;12.308;2024-02-16T02:13:56;4.90;;;2.63;;
69170;SDS011;56279;47.902;12.308;2024-02-16T02:15:59;5.03;;;2.40;;
69170;SDS011;56279;47.902;12.308;2024-02-16T02:18:02;5.50;;;2.40;;
69170;SDS011;56279;47.902;12.308;2024-02-16T02:20:03;4.32;;;2.40;;
69170;SDS011;56279;47.902;12.308;2024-02-16T02:22:15;5.05;;;2.10;;
69170;SDS011;56279;47.902;12.308;2024-02-16T02:24:20;3.70;;;2.10;;
69170;SDS011;56279;47.902;12.308;2024-02-16T02:26:22;7.65;;;2.35;;
69170;SDS011;56279;47.902;12.308;2024-02-16T02:28:23;6.15;;;2.47;;
69170;SDS011;56279;47.902;12.308;2024-02-16T02:30:26;3.83;;;2.08;;
69170;SDS011;56279;47.902;12.308;2024-02-16T02:32:28;3.58;;;2.10;;
69170;SDS011;56279;47.902;12.308;2024-02-16T02:34:30;5.65;;;2.50;;
69170;SDS011;56279;47.902;12.308;2024-02-16T02:36:32;5.40;;;2.58;;
69170;SDS011;56279;47.902;12.308;2024-02-16T02:38:34;5.68;;;2.10;;
69170;SDS011;56279;47.902;12.308;2024-02-16T02:40:35;4.10;;;2.33;;
69170;SDS011;56279;47.902;12.308;2024-02-16T02:42:38;4.97;;;2.17;;
69170;SDS011;56279;47.902;12.308;2024-02-16T02:44:39;5.25;;;2.40;;
69170;SDS011;56279;47.902;12.308;2024-02-16T02:46:41;4.82;;;2.25;;
69170;SDS011;56279;47.902;12.308;2024-02-16T02:48:42;3.85;;;2.00;;
69170;SDS011;56279;47.902;12.308;2024-02-16T02:50:44;4.10;;;1.92;;
69170;SDS011;56279;47.902;12.308;2024-02-16T02:52:45;4.35;;;1.98;;
69170;SDS011;56279;47.902;12.308;2024-02-16T02:54:47;6.38;;;2.08;;
69170;SDS011;56279;47.902;12.308;2024-02-16T02:56:52;5.38;;;2.50;;
69170;SDS011;56279;47.902;12.308;2024-02-16T02:58:55;4.40;;;1.90;;
69170;SDS011;56279;47.902;12.308;2024-02-16T03:00:56;4.65;;;2.30;;
69170;SDS011;56279;47.902;12.308;2024-02-16T03:03:00;5.15;;;2.30;;
69170;SDS011;56279;47.902;12.308;2024-02-16T03:05:02;4.18;;;2.30;;
69170;SDS011;56279;47.902;12.308;2024-02-16T03:07:04;4.40;;;2.17;;
69170;SDS011;56279;47.902;12.308;2024-02-16T03:09:05;5.03;;;2.33;;
69170;SDS011;56279;47.902;12.308;2024-02-16T03:11:07;4.18;;;2.28;;
69170;SDS011;56279;47.902;12.308;2024-02-16T03:13:08;4.15;;;2.10;;
69170;SDS011;56279;47.902;12.308;2024-02-16T03:15:10;5.78;;;2.25;;
69170;SDS011;56279;47.902;12.308;2024-02-16T03:17:12;5.15;;;2.20;;
69170;SDS011;56279;47.902;12.308;2024-02-16T03:19:14;4.07;;;2.08;;
69170;SDS011;56279;47.902;12.308;2024-02-16T03:21:15;4.18;;;2.20;;
69170;SDS011;56279;47.902;12.308;2024-02-16T03:23:20;7.05;;;2.40;;
69170;SDS011;56279;47.902;12.308;2024-02-16T03:25:22;4.97;;;2.17;;
69170;SDS011;56279;47.902;12.308;2024-02-16T03:27:25;3.63;;;2.22;;
69170;SDS011;56279;47.902;12.308;2024-02-16T03:29:27;5.00;;;2.53;;
69170;SDS011;56279;47.902;12.308;2024-02-16T03:31:32;5.03;;;2.15;;
69170;SDS011;56279;47.902;12.308;2024-02-16T03:33:34;3.50;;;1.95;;
69170;SDS011;56279;47.902;12.308;2024-02-16T03:35:35;4.88;;;2.17;;
69170;SDS011;56279;47.902;12.308;2024-02-16T03:37:38;4.65;;;2.25;;
69170;SDS011;56279;47.902;12.308;2024-02-16T03:39:39;4.30;;;2.33;;
69170;SDS011;56279;47.902;12.308;2024-02-16T03:41:40;4.85;;;2.30;;
69170;SDS011;56279;47.902;12.308;2024-02-16T03:43:42;6.00;;;2.38;;
69170;SDS011;56279;47.902;12.308;2024-02-16T03:45:43;3.40;;;2.00;;
69170;SDS011;56279;47.902;12.308;2024-02-16T03:47:45;5.07;;;2.40;;
69170;SDS011;56279;47.902;12.308;2024-02-16T03:49:46;4.55;;;2.38;;
69170;SDS011;56279;47.902;12.308;2024-02-16T03:51:48;4.97;;;2.55;;
69170;SDS011;56279;47.902;12.308;2024-02-16T03:53:52;5.60;;;2.35;;
69170;SDS011;56279;47.902;12.308;2024-02-16T03:55:54;4.20;;;2.45;;
69170;SDS011;56279;47.902;12.308;2024-02-16T03:57:56;5.28;;;2.88;;
69170;SDS011;56279;47.902;12.308;2024-02-16T03:59:57;4.57;;;2.20;;
69170;SDS011;56279;47.902;12.308;2024-02-16T04:02:00;5.95;;;2.55;;
69170;SDS011;56279;47.902;12.308;2024-02-16T04:04:01;6.25;;;2.53;;
69170;SDS011;56279;47.902;12.308;2024-02-16T04:06:04;5.35;;;2.38;;
69170;SDS011;56279;47.902;12.308;2024-02-16T04:08:07;5.68;;;2.60;;
69170;SDS011;56279;47.902;12.308;2024-02-16T04:10:08;3.53;;;1.80;;
69170;SDS011;56279;47.902;12.308;2024-02-16T04:12:09;4.18;;;2.25;;
69170;SDS011;56279;47.902;12.308;2024-02-16T04:14:11;4.13;;;2.13;;
69170;SDS011;56279;47.902;12.308;2024-02-16T04:16:12;5.63;;;2.10;;
69170;SDS011;56279;47.902;12.308;2024-02-16T04:18:13;4.20;;;2.05;;
69170;SDS011;56279;47.902;12.308;2024-02-16T04:20:16;4.00;;;2.10;;
69170;SDS011;56279;47.902;12.308;2024-02-16T04:22:21;3.97;;;1.88;;
69170;SDS011;56279;47.902;12.308;2024-02-16T04:24:22;4.53;;;1.90;;
69170;SDS011;56279;47.902;12.308;2024-02-16T04:26:23;3.63;;;2.10;;
69170;SDS011;56279;47.902;12.308;2024-02-16T04:28:24;4.40;;;1.85;;
69170;SDS011;56279;47.902;12.308;2024-02-16T04:30:26;4.65;;;2.20;;
69170;SDS011;56279;47.902;12.308;2024-02-16T04:32:29;4.13;;;2.10;;
69170;SDS011;56279;47.902;12.308;2024-02-16T04:34:31;3.63;;;1.90;;
69170;SDS011;56279;47.902;12.308;2024-02-16T04:36:33;5.18;;;2.13;;
69170;SDS011;56279;47.902;12.308;2024-02-16T04:38:35;4.32;;;2.15;;
69170;SDS011;56279;47.902;12.308;2024-02-16T04:40:37;4.68;;;2.28;;
69170;SDS011;56279;47.902;12.308;2024-02-16T04:42:38;3.75;;;2.25;;
69170;SDS011;56279;47.902;12.308;2024-02-16T04:44:41;4.47;;;2.38;;
69170;SDS011;56279;47.902;12.308;2024-02-16T04:46:42;3.85;;;2.10;;
69170;SDS011;56279;47.902;12.308;2024-02-16T04:48:43;6.88;;;2.53;;
69170;SDS011;56279;47.902;12.308;2024-02-16T04:50:46;8.27;;;2.95;;
69170;SDS011;56279;47.902;12.308;2024-02-16T04:52:47;5.53;;;2.65;;
69170;SDS011;56279;47.902;12.308;2024-02-16T04:54:49;5.03;;;2.72;;
69170;SDS011;56279;47.902;12.308;2024-02-16T04:56:50;6.20;;;3.00;;
69170;SDS011;56279;47.902;12.308;2024-02-16T04:58:51;5.18;;;2.90;;
69170;SDS011;56279;47.902;12.308;2024-02-16T05:00:52;5.15;;;2.92;;
69170;SDS011;56279;47.902;12.308;2024-02-16T05:02:54;6.10;;;3.45;;
69170;SDS011;56279;47.902;12.308;2024-02-16T05:04:56;9.20;;;3.13;;
69170;SDS011;56279;47.902;12.308;2024-02-16T05:06:58;5.45;;;2.78;;
69170;SDS011;56279;47.902;12.308;2024-02-16T05:08:59;7.30;;;3.00;;
69170;SDS011;56279;47.902;12.308;2024-02-16T05:11:00;7.40;;;2.90;;
69170;SDS011;56279;47.902;12.308;2024-02-16T05:13:03;7.03;;;2.80;;
69170;SDS011;56279;47.902;12.308;2024-02-16T05:15:06;9.07;;;2.97;;
69170;SDS011;56279;47.902;12.308;2024-02-16T05:17:08;6.00;;;3.30;;
69170;SDS011;56279;47.902;12.308;2024-02-16T05:19:09;7.10;;;3.40;;
69170;SDS011;56279;47.902;12.308;2024-02-16T05:21:10;6.82;;;3.92;;
69170;SDS011;56279;47.902;12.308;2024-02-16T05:23:12;6.43;;;3.60;;
69170;SDS011;56279;47.902;12.308;2024-02-16T05:25:13;5.40;;;3.17;;
69170;SDS011;56279;47.902;12.308;2024-02-16T05:27:15;5.95;;;3.05;;
69170;SDS011;56279;47.902;12.308;2024-02-16T05:29:17;7.45;;;3.47;;
69170;SDS011;56279;47.902;12.308;2024-02-16T05:31:18;6.47;;;3.70;;
69170;SDS011;56279;47.902;12.308;2024-02-16T05:33:22;8.43;;;4.10;;
69170;SDS011;56279;47.902;12.308;2024-02-16T05:35:23;9.15;;;4.20;;
69170;SDS011;56279;47.902;12.308;2024-02-16T05:37:29;7.38;;;3.65;;
69170;SDS011;56279;47.902;12.308;2024-02-16T05:39:33;6.40;;;3.40;;
69170;SDS011;56279;47.902;12.308;2024-02-16T05:41:44;8.32;;;3.85;;
69170;SDS011;56279;47.902;12.308;2024-02-16T05:43:46;8.63;;;4.80;;
69170;SDS011;56279;47.902;12.308;2024-02-16T05:45:47;8.73;;;4.35;;
69170;SDS011;56279;47.902;12.308;2024-02-16T05:47:49;6.53;;;3.63;;
69170;SDS011;56279;47.902;12.308;2024-02-16T05:49:51;7.18;;;4.03;;
69170;SDS011;56279;47.902;12.308;2024-02-16T05:51:53;7.75;;;4.20;;
69170;SDS011;56279;47.902;12.308;2024-02-16T05:54:13;7.90;;;4.32;;
69170;SDS011;56279;47.902;12.308;2024-02-16T05:56:14;7.50;;;4.13;;
69170;SDS011;56279;47.902;12.308;2024-02-16T05:58:16;8.48;;;4.18;;
69170;SDS011;56279;47.902;12.308;2024-02-16T06:00:17;7.82;;;4.70;;
69170;SDS011;56279;47.902;12.308;2024-02-16T06:02:22;6.75;;;4.38;;
69170;SDS011;56279;47.902;12.308;2024-02-16T06:04:26;8.73;;;4.18;;
69170;SDS011;56279;47.902;12.308;2024-02-16T06:06:28;9.65;;;4.70;;
69170;SDS011;56279;47.902;12.308;2024-02-16T06:08:29;7.00;;;4.60;;
69170;SDS011;56279;47.902;12.308;2024-02-16T06:10:30;8.10;;;4.40;;
69170;SDS011;56279;47.902;12.308;2024-02-16T06:12:32;7.93;;;5.03;;
69170;SDS011;56279;47.902;12.308;2024-02-16T06:14:33;8.23;;;5.00;;
69170;SDS011;56279;47.902;12.308;2024-02-16T06:16:35;7.78;;;4.28;;
69170;SDS011;56279;47.902;12.308;2024-02-16T06:18:36;7.35;;;4.38;;
69170;SDS011;56279;47.902;12.308;2024-02-16T06:20:37;7.72;;;4.70;;
69170;SDS011;56279;47.902;12.308;2024-02-16T06:22:39;7.78;;;4.57;;
69170;SDS011;56279;47.902;12.308;2024-02-16T06:24:40;9.15;;;5.03;;
69170;SDS011;56279;47.902;12.308;2024-02-16T06:26:43;8.32;;;4.90;;
69170;SDS011;56279;47.902;12.308;2024-02-16T06:28:45;8.70;;;4.78;;
69170;SDS011;56279;47.902;12.308;2024-02-16T06:30:46;8.15;;;4.40;;
69170;SDS011;56279;47.902;12.308;2024-02-16T06:32:49;6.88;;;4.28;;
69170;SDS011;56279;47.902;12.308;2024-02-16T06:34:52;9.93;;;4.68;;
69170;SDS011;56279;47.902;12.308;2024-02-16T06:36:57;7.20;;;3.90;;
69170;SDS011;56279;47.902;12.308;2024-02-16T06:39:02;9.20;;;4.25;;
69170;SDS011;56279;47.902;12.308;2024-02-16T06:41:05;5.88;;;3.50;;
69170;SDS011;56279;47.902;12.308;2024-02-16T06:43:06;6.85;;;3.17;;
69170;SDS011;56279;47.902;12.308;2024-02-16T06:45:08;6.45;;;3.28;;
69170;SDS011;56279;47.902;12.308;2024-02-16T06:47:10;9.32;;;3.30;;
69170;SDS011;56279;47.902;12.308;2024-02-16T06:49:12;5.50;;;3.35;;
69170;SDS011;56279;47.902;12.308;2024-02-16T06:51:14;6.13;;;3.65;;
69170;SDS011;56279;47.902;12.308;2024-02-16T06:53:16;5.35;;;3.25;;
69170;SDS011;56279;47.902;12.308;2024-02-16T06:55:18;6.45;;;3.58;;
69170;SDS011;56279;47.902;12.308;2024-02-16T06:57:20;5.85;;;3.50;;
69170;SDS011;56279;47.902;12.308;2024-02-16T06:59:25;6.18;;;2.97;;
69170;SDS011;56279;47.902;12.308;2024-02-16T07:01:29;4.97;;;2.97;;
69170;SDS011;56279;47.902;12.308;2024-02-16T07:03:30;6.28;;;3.15;;
69170;SDS011;56279;47.902;12.308;2024-02-16T07:05:31;6.35;;;3.42;;
69170;SDS011;56279;47.902;12.308;2024-02-16T07:07:33;4.97;;;3.15;;
69170;SDS011;56279;47.902;12.308;2024-02-16T07:09:37;7.30;;;3.47;;
69170;SDS011;56279;47.902;12.308;2024-02-16T07:11:40;6.78;;;3.20;;
69170;SDS011;56279;47.902;12.308;2024-02-16T07:13:42;5.47;;;3.15;;
69170;SDS011;56279;47.902;12.308;2024-02-16T07:15:43;5.70;;;3.25;;
69170;SDS011;56279;47.902;12.308;2024-02-16T07:17:45;5.65;;;3.33;;
69170;SDS011;56279;47.902;12.308;2024-02-16T07:19:47;7.13;;;3.13;;
69170;SDS011;56279;47.902;12.308;2024-02-16T07:21:48;7.45;;;3.28;;
69170;SDS011;56279;47.902;12.308;2024-02-16T07:23:50;5.50;;;3.10;;
69170;SDS011;56279;47.902;12.308;2024-02-16T07:25:52;6.68;;;3.92;;
69170;SDS011;56279;47.902;12.308;2024-02-16T07:27:57;6.70;;;3.40;;
69170;SDS011;56279;47.902;12.308;2024-02-16T07:29:59;8.60;;;3.10;;
69170;SDS011;56279;47.902;12.308;2024-02-16T07:32:01;6.85;;;2.85;;
69170;SDS011;56279;47.902;12.308;2024-02-16T07:34:04;4.80;;;2.78;;
69170;SDS011;56279;47.902;12.308;2024-02-16T07:36:06;7.20;;;2.85;;
69170;SDS011;56279;47.902;12.308;2024-02-16T07:38:09;5.50;;;2.90;;
69170;SDS011;56279;47.902;12.308;2024-02-16T07:40:11;6.20;;;2.70;;
69170;SDS011;56279;47.902;12.308;2024-02-16T07:42:12;9.48;;;3.08;;
69170;SDS011;56279;47.902;12.308;2024-02-16T07:44:17;5.35;;;2.60;;
69170;SDS011;56279;47.902;12.308;2024-02-16T07:46:19;5.53;;;2.47;;
69170;SDS011;56279;47.902;12.308;2024-02-16T07:48:20;7.95;;;3.35;;
69170;SDS011;56279;47.902;12.308;2024-02-16T07:50:22;6.70;;;3.50;;
69170;SDS011;56279;47.902;12.308;2024-02-16T07:52:25;7.78;;;3.65;;
69170;SDS011;56279;47.902;12.308;2024-02-16T07:54:26;7.80;;;4.32;;
69170;SDS011;56279;47.902;12.308;2024-02-16T07:56:33;9.52;;;4.90;;
69170;SDS011;56279;47.902;12.308;2024-02-16T07:58:35;9.45;;;4.68;;
69170;SDS011;56279;47.902;12.308;2024-02-16T08:00:37;12.13;;;6.20;;
69170;SDS011;56279;47.902;12.308;2024-02-16T08:02:39;12.27;;;6.43;;
69170;SDS011;56279;47.902;12.308;2024-02-16T08:04:42;11.60;;;5.97;;
69170;SDS011;56279;47.902;12.308;2024-02-16T08:06:45;8.55;;;4.13;;
69170;SDS011;56279;47.902;12.308;2024-02-16T08:08:46;7.90;;;4.35;;
69170;SDS011;56279;47.902;12.308;2024-02-16T08:10:48;7.43;;;4.25;;
69170;SDS011;56279;47.902;12.308;2024-02-16T08:12:49;9.05;;;4.85;;
69170;SDS011;56279;47.902;12.308;2024-02-16T08:14:52;10.38;;;5.30;;
69170;SDS011;56279;47.902;12.308;2024-02-16T08:16:53;8.32;;;4.68;;
69170;SDS011;56279;47.902;12.308;2024-02-16T08:18:58;7.47;;;4.40;;
69170;SDS011;56279;47.902;12.308;2024-02-16T08:21:00;11.98;;;6.18;;
69170;SDS011;56279;47.902;12.308;2024-02-16T08:23:02;9.38;;;5.30;;
69170;SDS011;56279;47.902;12.308;2024-02-16T08:25:04;8.73;;;4.82;;
69170;SDS011;56279;47.902;12.308;2024-02-16T08:27:07;11.02;;;5.47;;
69170;SDS011;56279;47.902;12.308;2024-02-16T08:29:10;10.77;;;5.38;;
69170;SDS011;56279;47.902;12.308;2024-02-16T08:31:14;10.30;;;5.28;;
69170;SDS011;56279;47.902;12.308;2024-02-16T08:33:19;9.15;;;4.80;;
69170;SDS011;56279;47.902;12.308;2024-02-16T08:35:21;9.55;;;4.50;;
69170;SDS011;56279;47.902;12.308;2024-02-16T08:37:25;9.30;;;5.43;;
69170;SDS011;56279;47.902;12.308;2024-02-16T08:39:27;8.88;;;4.90;;
69170;SDS011;56279;47.902;12.308;2024-02-16T08:41:30;9.75;;;5.13;;
69170;SDS011;56279;47.902;12.308;2024-02-16T08:43:37;11.18;;;5.20;;
69170;SDS011;56279;47.902;12.308;2024-02-16T08:45:39;7.95;;;4.15;;
69170;SDS011;56279;47.902;12.308;2024-02-16T08:47:42;8.45;;;4.68;;
69170;SDS011;56279;47.902;12.308;2024-02-16T08:49:43;7.68;;;5.00;;
69170;SDS011;56279;47.902;12.308;2024-02-16T08:51:46;8.95;;;4.60;;
69170;SDS011;56279;47.902;12.308;2024-02-16T08:53:48;10.30;;;5.30;;
69170;SDS011;56279;47.902;12.308;2024-02-16T08:55:50;10.45;;;4.85;;
69170;SDS011;56279;47.902;12.308;2024-02-16T08:57:54;8.45;;;5.22;;
69170;SDS011;56279;47.902;12.308;2024-02-16T08:59:58;8.93;;;5.07;;
69170;SDS011;56279;47.902;12.308;2024-02-16T09:02:01;8.63;;;4.70;;
69170;SDS011;56279;47.902;12.308;2024-02-16T09:04:06;10.48;;;5.63;;
69170;SDS011;56279;47.902;12.308;2024-02-16T09:06:10;8.27;;;4.80;;
69170;SDS011;56279;47.902;12.308;2024-02-16T09:08:14;8.60;;;5.35;;
69170;SDS011;56279;47.902;12.308;2024-02-16T09:10:16;9.98;;;5.20;;
69170;SDS011;56279;47.902;12.308;2024-02-16T09:12:19;10.35;;;5.65;;
69170;SDS011;56279;47.902;12.308;2024-02-16T09:14:21;9.63;;;4.93;;
69170;SDS011;56279;47.902;12.308;2024-02-16T09:16:23;9.75;;;5.07;;
69170;SDS011;56279;47.902;12.308;2024-02-16T09:18:24;9.00;;;5.35;;
69170;SDS011;56279;47.902;12.308;2024-02-16T09:20:26;10.85;;;5.18;;
69170;SDS011;56279;47.902;12.308;2024-02-16T09:22:27;9.32;;;4.80;;
69170;SDS011;56279;47.902;12.308;2024-02-16T09:24:28;8.80;;;4.93;;
69170;SDS011;56279;47.902;12.308;2024-02-16T09:26:30;8.02;;;4.70;;
69170;SDS011;56279;47.902;12.308;2024-02-16T09:28:38;9.60;;;4.70;;
69170;SDS011;56279;47.902;12.308;2024-02-16T09:30:42;8.10;;;4.70;;
69170;SDS011;56279;47.902;12.308;2024-02-16T09:32:44;7.72;;;4.30;;
69170;SDS011;56279;47.902;12.308;2024-02-16T09:34:45;10.57;;;4.60;;
69170;SDS011;56279;47.902;12.308;2024-02-16T09:36:48;8.57;;;4.63;;
69170;SDS011;56279;47.902;12.308;2024-02-16T09:38:52;7.05;;;4.00;;
69170;SDS011;56279;47.902;12.308;2024-02-16T09:40:54;7.37;;;4.27;;
69170;SDS011;56279;47.902;12.308;2024-02-16T09:42:55;8.18;;;3.97;;
69170;SDS011;56279;47.902;12.308;2024-02-16T09:45:01;7.93;;;4.32;;
69170;SDS011;56279;47.902;12.308;2024-02-16T09:47:02;9.43;;;4.45;;
69170;SDS011;56279;47.902;12.308;2024-02-16T09:49:06;6.43;;;3.85;;
69170;SDS011;56279;47.902;12.308;2024-02-16T09:51:08;6.53;;;3.97;;
69170;SDS011;56279;47.902;12.308;2024-02-16T09:53:11;7.05;;;3.80;;
69170;SDS011;56279;47.902;12.308;2024-02-16T09:55:14;13.52;;;4.45;;
69170;SDS011;56279;47.902;12.308;2024-02-16T09:57:21;6.95;;;4.15;;
69170;SDS011;56279;47.902;12.308;2024-02-16T09:59:24;8.13;;;4.20;;
69170;SDS011;56279;47.902;12.308;2024-02-16T10:01:26;8.80;;;3.70;;
69170;SDS011;56279;47.902;12.308;2024-02-16T10:03:30;7.60;;;3.70;;
69170;SDS011;56279;47.902;12.308;2024-02-16T10:05:35;6.97;;;3.85;;
69170;SDS011;56279;47.902;12.308;2024-02-16T10:07:36;6.68;;;3.50;;
69170;SDS011;56279;47.902;12.308;2024-02-16T10:09:39;7.03;;;3.65;;
69170;SDS011;56279;47.902;12.308;2024-02-16T10:11:44;5.87;;;3.00;;
69170;SDS011;56279;47.902;12.308;2024-02-16T10:13:55;5.22;;;2.80;;
69170;SDS011;56279;47.902;12.308;2024-02-16T10:16:04;9.00;;;3.55;;
69170;SDS011;56279;47.902;12.308;2024-02-16T10:18:09;4.50;;;2.72;;
69170;SDS011;56279;47.902;12.308;2024-02-16T10:20:10;5.63;;;2.60;;
69170;SDS011;56279;47.902;12.308;2024-02-16T10:22:20;4.77;;;2.20;;
69170;SDS011;56279;47.902;12.308;2024-02-16T10:24:26;6.20;;;2.10;;
69170;SDS011;56279;47.902;12.308;2024-02-16T10:26:31;3.75;;;2.30;;
69170;SDS011;56279;47.902;12.308;2024-02-16T10:28:33;3.08;;;1.70;;
69170;SDS011;56279;47.902;12.308;2024-02-16T10:30:36;5.25;;;2.08;;
69170;SDS011;56279;47.902;12.308;2024-02-16T10:32:41;3.93;;;1.70;;
69170;SDS011;56279;47.902;12.308;2024-02-16T10:34:45;6.60;;;1.83;;
69170;SDS011;56279;47.902;12.308;2024-02-16T10:36:48;3.95;;;1.90;;
69170;SDS011;56279;47.902;12.308;2024-02-16T10:38:50;6.43;;;1.90;;
69170;SDS011;56279;47.902;12.308;2024-02-16T10:40:56;5.40;;;2.10;;
69170;SDS011;56279;47.902;12.308;2024-02-16T10:42:59;4.20;;;2.10;;
69170;SDS011;56279;47.902;12.308;2024-02-16T10:45:05;4.95;;;1.80;;
69170;SDS011;56279;47.902;12.308;2024-02-16T10:47:07;3.83;;;1.70;;
69170;SDS011;56279;47.902;12.308;2024-02-16T10:49:09;5.80;;;2.17;;
69170;SDS011;56279;47.902;12.308;2024-02-16T10:51:13;3.90;;;1.77;;
69170;SDS011;56279;47.902;12.308;2024-02-16T10:53:23;3.33;;;1.63;;
69170;SDS011;56279;47.902;12.308;2024-02-16T10:55:27;4.35;;;1.90;;
69170;SDS011;56279;47.902;12.308;2024-02-16T10:57:29;3.35;;;1.85;;
69170;SDS011;56279;47.902;12.308;2024-02-16T10:59:37;5.25;;;1.85;;
69170;SDS011;56279;47.902;12.308;2024-02-16T11:01:44;3.60;;;1.80;;
69170;SDS011;56279;47.902;12.308;2024-02-16T11:03:45;7.53;;;1.90;;
69170;SDS011;56279;47.902;12.308;2024-02-16T11:05:47;4.25;;;1.80;;
69170;SDS011;56279;47.902;12.308;2024-02-16T11:07:58;5.30;;;1.85;;
69170;SDS011;56279;47.902;12.308;2024-02-16T11:10:01;3.40;;;1.70;;
69170;SDS011;56279;47.902;12.308;2024-02-16T11:12:03;3.30;;;1.80;;
69170;SDS011;56279;47.902;12.308;2024-02-16T11:14:16;4.10;;;1.83;;
69170;SDS011;56279;47.902;12.308;2024-02-16T11:16:18;3.28;;;1.63;;
69170;SDS011;56279;47.902;12.308;2024-02-16T11:18:20;3.55;;;1.88;;
69170;SDS011;56279;47.902;12.308;2024-02-16T11:20:23;3.15;;;1.70;;
69170;SDS011;56279;47.902;12.308;2024-02-16T11:22:26;4.55;;;1.73;;
69170;SDS011;56279;47.902;12.308;2024-02-16T11:24:32;3.53;;;1.70;;
69170;SDS011;56279;47.902;12.308;2024-02-16T11:26:44;3.38;;;1.70;;
69170;SDS011;56279;47.902;12.308;2024-02-16T11:28:46;3.85;;;1.75;;
69170;SDS011;56279;47.902;12.308;2024-02-16T11:30:47;3.47;;;1.77;;
69170;SDS011;56279;47.902;12.308;2024-02-16T11:32:48;2.50;;;1.70;;
69170;SDS011;56279;47.902;12.308;2024-02-16T11:34:49;3.07;;;1.60;;
69170;SDS011;56279;47.902;12.308;2024-02-16T11:36:57;3.53;;;1.70;;
69170;SDS011;56279;47.902;12.308;2024-02-16T11:39:00;2.70;;;1.70;;
69170;SDS011;56279;47.902;12.308;2024-02-16T11:41:03;2.75;;;1.67;;
69170;SDS011;56279;47.902;12.308;2024-02-16T11:43:06;4.32;;;1.73;;
69170;SDS011;56279;47.902;12.308;2024-02-16T11:45:09;3.77;;;1.70;;
69170;SDS011;56279;47.902;12.308;2024-02-16T11:47:18;3.53;;;1.67;;
69170;SDS011;56279;47.902;12.308;2024-02-16T11:49:21;3.97;;;1.85;;
69170;SDS011;56279;47.902;12.308;2024-02-16T11:51:22;4.00;;;1.77;;
69170;SDS011;56279;47.902;12.308;2024-02-16T11:53:24;3.55;;;1.73;;
69170;SDS011;56279;47.902;12.308;2024-02-16T11:55:25;5.57;;;1.90;;
69170;SDS011;56279;47.902;12.308;2024-02-16T11:57:26;3.03;;;1.70;;
69170;SDS011;56279;47.902;12.308;2024-02-16T11:59:28;5.47;;;2.08;;
69170;SDS011;56279;47.902;12.308;2024-02-16T12:01:31;3.35;;;1.83;;
69170;SDS011;56279;47.902;12.308;2024-02-16T12:03:35;4.25;;;1.67;;
69170;SDS011;56279;47.902;12.308;2024-02-16T12:05:36;4.63;;;2.00;;
69170;SDS011;56279;47.902;12.308;2024-02-16T12:07:38;3.55;;;1.73;;